sensor_id;sensor_type;location;lat;lon;timestamp;temperature;humidity
18268;DHT22;9260;49.998;19.880;2023-07-16T00:16:57;13.70;99.90
18268;DHT22;9260;49.998;19.880;2023-07-16T00:27:01;13.40;99.90
18268;DHT22;9260;49.998;19.880;2023-07-16T00:37:07;13.60;99.90
18268;DHT22;9260;49.998;19.880;2023-07-16T00:47:11;13.40;99.90
18268;DHT22;9260;49.998;19.880;2023-07-16T00:57:18;13.30;99.90
18268;DHT22;9260;49.998;19.880;2023-07-16T01:07:22;13.10;99.90
18268;DHT22;9260;49.998;19.880;2023-07-16T01:17:30;13.10;99.90
18268;DHT22;9260;49.998;19.880;2023-07-16T01:48:22;12.80;99.90
18268;DHT22;9260;49.998;19.880;2023-07-16T01:58:32;12.60;99.90
18268;DHT22;9260;49.998;19.880;2023-07-16T02:28:44;12.40;99.90
18268;DHT22;9260;49.998;19.880;2023-07-16T02:48:54;12.30;99.90
18268;DHT22;9260;49.998;19.880;2023-07-16T02:58:59;12.30;99.90
18268;DHT22;9260;49.998;19.880;2023-07-16T03:19:08;12.30;99.90
18268;DHT22;9260;49.998;19.880;2023-07-16T03:39:18;12.50;99.90
18268;DHT22;9260;49.998;19.880;2023-07-16T03:49:22;12.80;99.90
18268;DHT22;9260;49.998;19.880;2023-07-16T04:19:37;13.70;99.90
18268;DHT22;9260;49.998;19.880;2023-07-16T04:29:41;14.30;99.90
18268;DHT22;9260;49.998;19.880;2023-07-16T04:39:45;14.60;99.90
18268;DHT22;9260;49.998;19.880;2023-07-16T04:49:49;15.50;99.90
18268;DHT22;9260;49.998;19.880;2023-07-16T05:30:08;18.30;99.90
18268;DHT22;9260;49.998;19.880;2023-07-16T05:40:14;19.00;99.90
18268;DHT22;9260;49.998;19.880;2023-07-16T06:00:23;20.90;99.90
18268;DHT22;9260;49.998;19.880;2023-07-16T06:20:31;22.50;99.90
18268;DHT22;9260;49.998;19.880;2023-07-16T06:30:35;23.40;99.90
18268;DHT22;9260;49.998;19.880;2023-07-16T06:40:40;24.10;99.90
18268;DHT22;9260;49.998;19.880;2023-07-16T06:50:49;24.80;99.90
18268;DHT22;9260;49.998;19.880;2023-07-16T07:00:54;25.50;99.90
18268;DHT22;9260;49.998;19.880;2023-07-16T07:21:04;26.60;99.90
18268;DHT22;9260;49.998;19.880;2023-07-16T07:31:08;27.20;99.90
18268;DHT22;9260;49.998;19.880;2023-07-16T07:41:13;27.90;99.90
18268;DHT22;9260;49.998;19.880;2023-07-16T07:51:16;28.20;99.90
18268;DHT22;9260;49.998;19.880;2023-07-16T08:01:21;28.90;99.90
18268;DHT22;9260;49.998;19.880;2023-07-16T08:11:25;30.70;99.90
18268;DHT22;9260;49.998;19.880;2023-07-16T08:31:33;37.70;99.90
18268;DHT22;9260;49.998;19.880;2023-07-16T08:41:39;40.90;99.90
18268;DHT22;9260;49.998;19.880;2023-07-16T08:51:42;43.80;99.90
18268;DHT22;9260;49.998;19.880;2023-07-16T09:01:47;47.00;99.90
18268;DHT22;9260;49.998;19.880;2023-07-16T09:32:00;53.00;77.70
18268;DHT22;9260;49.998;19.880;2023-07-16T09:42:06;54.70;49.20
18268;DHT22;9260;49.998;19.880;2023-07-16T10:02:17;57.40;16.90
18268;DHT22;9260;49.998;19.880;2023-07-16T10:12:21;57.90;7.50
18268;DHT22;9260;49.998;19.880;2023-07-16T10:22:33;58.20;5.60
18268;DHT22;9260;49.998;19.880;2023-07-16T10:32:39;58.40;1.80
18268;DHT22;9260;49.998;19.880;2023-07-16T11:02:58;59.70;13.60
18268;DHT22;9260;49.998;19.880;2023-07-16T11:13:02;59.70;23.10
18268;DHT22;9260;49.998;19.880;2023-07-16T11:33:13;58.70;43.20
18268;DHT22;9260;49.998;19.880;2023-07-16T11:43:18;57.60;59.80
18268;DHT22;9260;49.998;19.880;2023-07-16T12:43:45;40.20;99.90
18268;DHT22;9260;49.998;19.880;2023-07-16T12:53:49;38.00;99.90
18268;DHT22;9260;49.998;19.880;2023-07-16T13:03:54;36.90;99.90
18268;DHT22;9260;49.998;19.880;2023-07-16T13:24:03;35.70;99.90
18268;DHT22;9260;49.998;19.880;2023-07-16T13:44:12;35.50;99.90
18268;DHT22;9260;49.998;19.880;2023-07-16T13:54:15;35.20;99.90
18268;DHT22;9260;49.998;19.880;2023-07-16T14:14:24;34.00;99.90
18268;DHT22;9260;49.998;19.880;2023-07-16T14:24:29;34.60;99.90
18268;DHT22;9260;49.998;19.880;2023-07-16T14:34:33;34.90;99.90
18268;DHT22;9260;49.998;19.880;2023-07-16T14:44:38;34.30;99.90
18268;DHT22;9260;49.998;19.880;2023-07-16T14:54:41;33.60;99.90
18268;DHT22;9260;49.998;19.880;2023-07-16T15:04:46;33.30;99.90
18268;DHT22;9260;49.998;19.880;2023-07-16T15:14:50;32.60;99.90
18268;DHT22;9260;49.998;19.880;2023-07-16T15:24:55;31.80;99.90
18268;DHT22;9260;49.998;19.880;2023-07-16T15:34:59;31.40;99.90
18268;DHT22;9260;49.998;19.880;2023-07-16T16:05:16;27.80;99.90
18268;DHT22;9260;49.998;19.880;2023-07-16T16:15:23;27.20;99.90
18268;DHT22;9260;49.998;19.880;2023-07-16T16:25:30;26.70;99.90
18268;DHT22;9260;49.998;19.880;2023-07-16T16:35:38;26.70;99.90
18268;DHT22;9260;49.998;19.880;2023-07-16T16:45:44;26.30;99.90
18268;DHT22;9260;49.998;19.880;2023-07-16T16:55:50;26.50;99.90
18268;DHT22;9260;49.998;19.880;2023-07-16T17:05:55;26.40;99.90
18268;DHT22;9260;49.998;19.880;2023-07-16T17:36:08;28.10;99.90
18268;DHT22;9260;49.998;19.880;2023-07-16T17:46:13;27.70;99.90
18268;DHT22;9260;49.998;19.880;2023-07-16T17:56:17;27.00;99.90
18268;DHT22;9260;49.998;19.880;2023-07-16T18:06:22;26.50;99.90
18268;DHT22;9260;49.998;19.880;2023-07-16T18:16:26;25.80;99.90
18268;DHT22;9260;49.998;19.880;2023-07-16T18:36:37;25.10;99.90
18268;DHT22;9260;49.998;19.880;2023-07-16T19:06:55;24.10;99.90
18268;DHT22;9260;49.998;19.880;2023-07-16T19:27:06;23.10;99.90
18268;DHT22;9260;49.998;19.880;2023-07-16T19:37:10;22.30;99.90
18268;DHT22;9260;49.998;19.880;2023-07-16T19:57:20;22.10;99.90
18268;DHT22;9260;49.998;19.880;2023-07-16T20:07:25;21.50;99.90
18268;DHT22;9260;49.998;19.880;2023-07-16T20:17:30;21.30;99.90
18268;DHT22;9260;49.998;19.880;2023-07-16T20:27:35;21.00;99.90
18268;DHT22;9260;49.998;19.880;2023-07-16T20:37:39;20.80;99.90
18268;DHT22;9260;49.998;19.880;2023-07-16T20:47:44;20.30;99.90
18268;DHT22;9260;49.998;19.880;2023-07-16T21:17:58;19.80;99.90
18268;DHT22;9260;49.998;19.880;2023-07-16T21:28:04;19.60;99.90
18268;DHT22;9260;49.998;19.880;2023-07-16T21:48:16;19.40;99.90
18268;DHT22;9260;49.998;19.880;2023-07-16T21:58:19;19.30;99.90
18268;DHT22;9260;49.998;19.880;2023-07-16T22:18:28;19.20;99.90
18268;DHT22;9260;49.998;19.880;2023-07-16T22:28:33;18.80;99.90
18268;DHT22;9260;49.998;19.880;2023-07-16T22:38:37;18.50;99.90
18268;DHT22;9260;49.998;19.880;2023-07-16T22:48:42;18.50;99.90
18268;DHT22;9260;49.998;19.880;2023-07-16T22:58:46;18.10;99.90
18268;DHT22;9260;49.998;19.880;2023-07-16T23:08:51;18.10;99.90
18268;DHT22;9260;49.998;19.880;2023-07-16T23:39:03;17.80;99.90
18268;DHT22;9260;49.998;19.880;2023-07-16T23:49:08;17.80;99.90
18268;DHT22;9260;49.998;19.880;2023-07-16T23:59:12;17.60;99.90
